createdAt,value
2019-02-10T00:01:51.455Z,99608.91
2019-02-10T00:04:19.571Z,99616.25
2019-02-10T00:06:48.007Z,99624.09
2019-02-10T00:09:16.080Z,99625.54
2019-02-10T00:11:44.160Z,99621.16
2019-02-10T00:14:12.314Z,99619.50
2019-02-10T00:16:40.427Z,99609.89
2019-02-10T00:19:08.483Z,99606.39
2019-02-10T00:21:36.505Z,99607.15
2019-02-10T00:24:05.559Z,99605.92
2019-02-10T00:26:33.839Z,99607.33
2019-02-10T00:29:01.879Z,99610.66
2019-02-10T00:31:29.933Z,99603.91
2019-02-10T00:33:57.992Z,99598.41
2019-02-10T00:36:32.873Z,99597.50
2019-02-10T00:38:56.089Z,99588.40
2019-02-10T00:41:24.102Z,99580.00
2019-02-10T00:43:52.494Z,99571.74
2019-02-10T00:46:20.500Z,99564.92
2019-02-10T00:48:48.598Z,99562.22
2019-02-10T00:51:16.660Z,99554.95
2019-02-10T00:53:45.636Z,99560.31
2019-02-10T00:56:13.652Z,99554.84
2019-02-10T00:58:41.699Z,99551.63
2019-02-10T01:01:09.706Z,99549.59
2019-02-10T01:03:38.072Z,99538.27
2019-02-10T01:06:06.066Z,99532.14
2019-02-10T01:08:34.098Z,99533.91
2019-02-10T01:11:02.135Z,99533.34
2019-02-10T01:13:31.307Z,99528.25
2019-02-10T01:15:59.656Z,99518.69
2019-02-10T01:18:28.074Z,99511.44
2019-02-10T01:20:56.092Z,99508.77
2019-02-10T01:23:24.145Z,99504.96
2019-02-10T01:25:52.148Z,99499.55
2019-02-10T01:28:20.495Z,99494.73
2019-02-10T01:30:48.556Z,99487.98
2019-02-10T01:33:18.016Z,99481.58
2019-02-10T01:35:46.404Z,99476.95
2019-02-10T01:38:15.748Z,99466.77
2019-02-10T01:40:43.803Z,99460.85
2019-02-10T01:43:12.105Z,99464.90
2019-02-10T01:45:40.184Z,99457.64
2019-02-10T01:48:08.221Z,99448.27
2019-02-10T01:50:36.355Z,99447.10
2019-02-10T01:53:04.459Z,99433.59
2019-02-10T01:55:33.038Z,99416.86
2019-02-10T01:58:01.234Z,99413.98
2019-02-10T02:00:29.303Z,99396.37
2019-02-10T02:02:57.392Z,99396.78
2019-02-10T02:05:25.430Z,99384.30
2019-02-10T02:07:53.463Z,99379.16
2019-02-10T02:10:21.880Z,99366.18
2019-02-10T02:12:49.902Z,99358.11
2019-02-10T02:15:19.298Z,99352.05
2019-02-10T02:17:47.341Z,99349.84
2019-02-10T02:20:15.419Z,99350.48
2019-02-10T02:22:43.475Z,99356.84
2019-02-10T02:25:12.832Z,99360.37
2019-02-10T02:27:40.853Z,99350.98
2019-02-10T02:30:14.092Z,99343.12
2019-02-10T02:32:42.389Z,99329.48
2019-02-10T02:35:10.491Z,99304.89
2019-02-10T02:37:38.858Z,99295.50
2019-02-10T02:40:09.028Z,99287.86
2019-02-10T02:42:37.095Z,99285.64
2019-02-10T02:45:08.001Z,99276.25
2019-02-10T02:47:37.050Z,99264.27
2019-02-10T02:50:27.962Z,99255.17
2019-02-10T02:52:56.118Z,99247.73
2019-02-10T02:55:24.467Z,99235.08
2019-02-10T02:57:52.499Z,99234.20
2019-02-10T03:00:20.935Z,99232.00
2019-02-10T03:02:48.949Z,99222.13
2019-02-10T03:05:17.042Z,99220.82
2019-02-10T03:07:45.082Z,99206.38
2019-02-10T03:10:13.094Z,99196.89
2019-02-10T03:12:41.146Z,99194.27
2019-02-10T03:15:09.184Z,99180.13
2019-02-10T03:17:37.245Z,99183.85
2019-02-10T03:20:06.584Z,99185.47
2019-02-10T03:22:34.679Z,99188.39
2019-02-10T03:25:02.857Z,99184.95
2019-02-10T03:27:30.901Z,99176.78
2019-02-10T03:29:59.339Z,99177.29
2019-02-10T03:32:27.395Z,99171.02
2019-02-10T03:34:55.424Z,99164.08
2019-02-10T03:37:27.125Z,99162.25
2019-02-10T03:39:53.720Z,99157.01
2019-02-10T03:42:21.778Z,99149.30
2019-02-10T03:44:49.804Z,99144.17
2019-02-10T03:47:17.861Z,99132.06
2019-02-10T03:49:45.917Z,99130.75
2019-02-10T03:52:13.978Z,99116.30
2019-02-10T03:54:42.358Z,99114.28
2019-02-10T03:57:10.537Z,99112.45
2019-02-10T03:59:38.569Z,99107.12
2019-02-10T04:02:06.822Z,99099.03
2019-02-10T04:04:34.896Z,99092.77
2019-02-10T04:07:02.962Z,99098.02
2019-02-10T04:09:30.967Z,99093.48
2019-02-10T04:11:59.013Z,99084.58
2019-02-10T04:14:27.064Z,99075.19
2019-02-10T04:16:55.144Z,99080.73
2019-02-10T04:19:23.206Z,99067.39
2019-02-10T04:21:51.277Z,99051.24
2019-02-10T04:24:19.332Z,99035.57
2019-02-10T04:26:47.430Z,99033.87
2019-02-10T04:29:16.479Z,99028.70
2019-02-10T04:31:44.811Z,99030.42
2019-02-10T04:34:12.841Z,99041.31
2019-02-10T04:36:40.905Z,99044.86
2019-02-10T04:39:08.954Z,99046.36
2019-02-10T04:41:37.030Z,99041.91
2019-02-10T04:44:05.065Z,99048.47
2019-02-10T04:46:33.121Z,99035.96
2019-02-10T04:49:01.190Z,99039.98
2019-02-10T04:51:29.248Z,99033.20
2019-02-10T04:53:57.313Z,99014.81
2019-02-10T04:56:25.346Z,99020.58
2019-02-10T04:58:53.385Z,99016.45
2019-02-10T05:01:21.459Z,99011.50
2019-02-10T05:03:50.238Z,99011.06
2019-02-10T05:06:18.307Z,99003.48
2019-02-10T05:08:46.356Z,98999.36
2019-02-10T05:11:14.458Z,98989.95
2019-02-10T05:13:42.490Z,98991.55
2019-02-10T05:16:10.552Z,98978.41
2019-02-10T05:18:38.690Z,98973.97
2019-02-10T05:21:07.838Z,98968.49
2019-02-10T05:23:35.942Z,98967.18
2019-02-10T05:26:04.003Z,98962.22
2019-02-10T05:28:32.075Z,98967.47
2019-02-10T05:31:00.469Z,98959.80
2019-02-10T05:33:28.522Z,98945.86
2019-02-10T05:35:56.558Z,98954.04
2019-02-10T05:38:24.618Z,98945.65
2019-02-10T05:40:52.668Z,98940.20
2019-02-10T05:43:20.720Z,98929.70
2019-02-10T05:45:48.750Z,98931.30
2019-02-10T05:48:17.200Z,98933.72
2019-02-10T05:50:45.240Z,98924.73
2019-02-10T05:53:13.329Z,98923.20
2019-02-10T05:55:41.643Z,98921.97
2019-02-10T05:58:09.727Z,98908.72
2019-02-10T06:00:40.865Z,98907.77
2019-02-10T06:03:09.113Z,98906.56
2019-02-10T06:05:37.180Z,98907.14
2019-02-10T06:08:12.837Z,98888.02
2019-02-10T06:10:35.793Z,98883.38
2019-02-10T06:13:03.848Z,98874.17
2019-02-10T06:15:31.952Z,98881.33
2019-02-10T06:18:00.352Z,98860.81
2019-02-10T06:20:28.437Z,98857.37
2019-02-10T06:22:56.559Z,98847.45
2019-02-10T06:25:24.622Z,98844.89
2019-02-10T06:27:52.678Z,98839.85
2019-02-10T06:30:20.711Z,98834.81
2019-02-10T06:32:48.752Z,98823.49
2019-02-10T06:35:16.819Z,98816.63
2019-02-10T06:37:44.906Z,98801.88
2019-02-10T06:40:12.999Z,98791.37
2019-02-10T06:42:41.382Z,98779.02
2019-02-10T06:45:12.128Z,98768.28
2019-02-10T06:47:40.637Z,98768.36
2019-02-10T06:50:09.760Z,98768.97
2019-02-10T06:52:37.869Z,98770.06
2019-02-10T06:55:09.883Z,98755.95
2019-02-10T06:57:37.952Z,98761.09
2019-02-10T07:00:44.610Z,98741.95
2019-02-10T07:03:59.237Z,98738.39
2019-02-10T07:06:27.377Z,98745.48
2019-02-10T07:08:55.700Z,98748.33
2019-02-10T07:11:31.650Z,98748.63
2019-02-10T07:14:20.707Z,98748.47
2019-02-10T07:17:27.717Z,98743.81
2019-02-10T07:20:41.692Z,98731.31
2019-02-10T07:24:24.222Z,98731.98
2019-02-10T07:26:58.801Z,98721.45
2019-02-10T07:30:41.038Z,98724.60
2019-02-10T07:34:02.980Z,98716.77
2019-02-10T07:37:24.494Z,98718.38
2019-02-10T07:40:31.583Z,98715.94
2019-02-10T07:44:12.237Z,98709.94
2019-02-10T07:47:45.020Z,98714.33
2019-02-10T07:51:31.590Z,98718.56
2019-02-10T07:54:32.329Z,98700.75
2019-02-10T07:57:49.410Z,98700.14
2019-02-10T08:00:49.404Z,98694.69
2019-02-10T08:04:02.051Z,98710.59
2019-02-10T08:07:15.675Z,98700.16
2019-02-10T08:10:31.793Z,98698.33
2019-02-10T08:14:19.407Z,98704.97
2019-02-10T08:17:41.376Z,98714.27
2019-02-10T08:21:01.318Z,98691.95
2019-02-10T08:24:02.992Z,98691.82
2019-02-10T08:27:39.323Z,98674.77
2019-02-10T08:30:50.226Z,98668.05
2019-02-10T08:33:52.532Z,98646.77
2019-02-10T08:37:32.593Z,98629.94
2019-02-10T08:41:10.258Z,98633.43
2019-02-10T08:45:00.886Z,98627.16
2019-02-10T08:48:01.258Z,98624.30
2019-02-10T08:51:24.261Z,98622.52
2019-02-10T08:54:11.864Z,98612.41
2019-02-10T08:56:39.972Z,98619.28
2019-02-10T08:59:09.842Z,98603.33
2019-02-10T09:01:38.224Z,98595.05
2019-02-10T09:04:06.682Z,98588.80
2019-02-10T09:06:34.792Z,98584.19
2019-02-10T09:09:04.636Z,98575.61
2019-02-10T09:11:32.739Z,98568.33
2019-02-10T09:14:00.855Z,98569.77
2019-02-10T09:16:28.983Z,98560.39
2019-02-10T09:18:57.032Z,98557.28
2019-02-10T09:21:25.150Z,98553.17
2019-02-10T09:23:53.230Z,98536.89
2019-02-10T09:26:22.438Z,98525.95
2019-02-10T09:28:50.513Z,98518.41
2019-02-10T09:31:18.606Z,98510.69
2019-02-10T09:33:46.672Z,98513.41
2019-02-10T09:36:14.833Z,98504.58
2019-02-10T09:38:43.421Z,98498.63
2019-02-10T09:41:11.580Z,98502.45
2019-02-10T09:43:40.060Z,98508.04
2019-02-10T09:46:08.509Z,98496.52
2019-02-10T09:48:36.642Z,98504.27
2019-02-10T09:51:04.836Z,98498.55
2019-02-10T09:53:32.981Z,98490.98
2019-02-10T09:56:01.051Z,98489.42
2019-02-10T09:58:29.284Z,98464.70
2019-02-10T10:00:57.517Z,98473.45
2019-02-10T10:03:25.667Z,98459.30
2019-02-10T10:05:53.687Z,98461.44
2019-02-10T10:08:21.787Z,98463.63
2019-02-10T10:10:49.849Z,98474.97
2019-02-10T10:13:18.266Z,98463.14
2019-02-10T10:15:46.681Z,98463.70
2019-02-10T10:18:14.751Z,98456.36
2019-02-10T10:20:42.900Z,98463.52
2019-02-10T10:23:12.014Z,98458.05
2019-02-10T10:25:40.101Z,98471.03
2019-02-10T10:28:08.219Z,98464.72
2019-02-10T10:30:36.289Z,98461.34
2019-02-10T10:33:06.201Z,98460.83
2019-02-10T10:35:34.447Z,98463.67
2019-02-10T10:38:02.945Z,98470.80
2019-02-10T10:40:31.579Z,98477.17
2019-02-10T10:42:59.718Z,98477.11
2019-02-10T10:45:27.764Z,98472.60
2019-02-10T10:47:55.869Z,98459.06
2019-02-10T10:50:23.945Z,98459.31
2019-02-10T10:52:52.043Z,98441.70
2019-02-10T10:55:20.352Z,98447.99
2019-02-10T10:57:48.495Z,98429.48
2019-02-10T11:00:16.576Z,98444.49
2019-02-10T11:02:44.762Z,98437.89
2019-02-10T11:05:15.004Z,98417.83
2019-02-10T11:07:43.235Z,98420.95
2019-02-10T11:10:11.543Z,98430.69
2019-02-10T11:12:39.612Z,98415.66
2019-02-10T11:15:10.239Z,98402.73
2019-02-10T11:17:40.027Z,98405.80
2019-02-10T11:20:09.268Z,98410.25
2019-02-10T11:22:39.438Z,98392.30
2019-02-10T11:25:08.823Z,98384.67
2019-02-10T11:27:38.147Z,98384.85
2019-02-10T11:30:07.973Z,98380.16
2019-02-10T11:32:36.014Z,98364.52
2019-02-10T11:35:04.750Z,98363.16
2019-02-10T11:37:33.123Z,98365.22
2019-02-10T11:40:01.578Z,98362.03
2019-02-10T11:42:29.711Z,98350.41
2019-02-10T11:44:57.795Z,98348.02
2019-02-10T11:47:25.860Z,98339.00
2019-02-10T11:49:54.250Z,98344.06
2019-02-10T11:52:23.316Z,98340.32
2019-02-10T11:54:51.456Z,98322.44
2019-02-10T11:57:19.782Z,98318.21
2019-02-10T11:59:47.911Z,98322.16
2019-02-10T12:02:16.315Z,98329.77
2019-02-10T12:04:46.223Z,98315.76
2019-02-10T12:07:14.278Z,98316.28
2019-02-10T12:09:42.794Z,98310.73
2019-02-10T12:12:11.045Z,98338.08
2019-02-10T12:14:39.267Z,98338.32
2019-02-10T12:17:07.331Z,98326.12
2019-02-10T12:19:36.007Z,98316.55
2019-02-10T12:22:04.196Z,98332.97
2019-02-10T12:24:32.220Z,98318.03
2019-02-10T12:27:00.593Z,98316.72
2019-02-10T12:29:30.049Z,98319.91
2019-02-10T12:31:58.103Z,98309.88
2019-02-10T12:34:26.522Z,98316.17
2019-02-10T12:36:54.611Z,98307.77
2019-02-10T12:39:23.841Z,98298.77
2019-02-10T12:41:52.108Z,98310.26
2019-02-10T12:44:20.240Z,98319.78
2019-02-10T12:46:48.333Z,98323.99
2019-02-10T12:49:16.799Z,98320.92
2019-02-10T12:51:44.875Z,98319.72
2019-02-10T12:54:13.020Z,98308.18
2019-02-10T12:56:41.436Z,98305.14
2019-02-10T12:59:09.912Z,98309.52
2019-02-10T13:01:39.004Z,98292.34
2019-02-10T13:04:07.541Z,98290.33
2019-02-10T13:06:35.731Z,98277.34
2019-02-10T13:09:06.905Z,98257.27
2019-02-10T13:11:34.993Z,98267.49
2019-02-10T13:14:03.105Z,98257.21
2019-02-10T13:16:31.161Z,98258.48
2019-02-10T13:18:59.446Z,98256.23
2019-02-10T13:21:27.494Z,98253.24
2019-02-10T13:23:55.837Z,98250.28
2019-02-10T13:26:23.999Z,98241.32
2019-02-10T13:28:52.154Z,98258.83
2019-02-10T13:31:20.295Z,98240.72
2019-02-10T13:33:48.505Z,98233.07
2019-02-10T13:36:16.620Z,98230.67
2019-02-10T13:38:44.579Z,98230.91
2019-02-10T13:41:13.557Z,98226.38
2019-02-10T13:43:41.946Z,98218.67
2019-02-10T13:46:10.083Z,98216.48
2019-02-10T13:48:39.973Z,98221.31
2019-02-10T13:51:08.444Z,98203.91
2019-02-10T13:53:36.919Z,98209.08
2019-02-10T13:56:05.537Z,98189.84
2019-02-10T13:58:33.920Z,98212.12
2019-02-10T14:01:02.294Z,98193.73
2019-02-10T14:03:30.542Z,98198.05
2019-02-10T14:05:58.765Z,98194.63
2019-02-10T14:08:29.704Z,98202.14
2019-02-10T14:10:58.467Z,98204.02
2019-02-10T14:13:29.203Z,98210.67
2019-02-10T14:16:08.160Z,98199.94
2019-02-10T14:18:36.904Z,98213.34
2019-02-10T14:21:05.437Z,98217.57
2019-02-10T14:23:33.875Z,98222.02
2019-02-10T14:26:02.678Z,98227.27
2019-02-10T14:28:30.960Z,98246.11
2019-02-10T14:31:00.906Z,98237.95
2019-02-10T14:33:39.094Z,98252.30
2019-02-10T14:36:07.546Z,98240.87
2019-02-10T14:38:36.750Z,98263.06
2019-02-10T14:41:05.059Z,98278.41
2019-02-10T14:43:33.470Z,98288.20
2019-02-10T14:46:10.064Z,98304.02
2019-02-10T14:48:38.174Z,98326.69
2019-02-10T14:51:06.703Z,98335.08
2019-02-10T14:53:34.813Z,98335.37
2019-02-10T14:56:02.946Z,98346.12
2019-02-10T14:58:31.046Z,98340.13
2019-02-10T15:01:08.007Z,98354.33
2019-02-10T15:03:38.305Z,98360.65
2019-02-10T15:06:08.694Z,98370.39
2019-02-10T15:08:36.783Z,98376.64
2019-02-10T15:11:06.108Z,98367.63
2019-02-10T15:13:34.318Z,98382.59
2019-02-10T15:16:02.426Z,98388.47
2019-02-10T15:18:30.480Z,98409.57
2019-02-10T15:20:58.569Z,98408.95
2019-02-10T15:23:33.329Z,98417.55
2019-02-10T15:26:02.456Z,98417.69
2019-02-10T15:28:40.435Z,98436.94
2019-02-10T15:31:09.025Z,98429.19
2019-02-10T15:33:39.136Z,98425.09
2019-02-10T15:36:07.398Z,98428.34
2019-02-10T15:38:35.628Z,98427.91
2019-02-10T15:41:04.106Z,98430.73
2019-02-10T15:43:32.431Z,98442.23
2019-02-10T15:46:00.748Z,98446.66
2019-02-10T15:48:28.888Z,98450.19
2019-02-10T15:50:57.039Z,98459.06
2019-02-10T15:53:25.323Z,98461.39
2019-02-10T15:56:10.475Z,98465.12
2019-02-10T15:58:39.982Z,98456.76
2019-02-10T16:01:08.234Z,98485.56
2019-02-10T16:03:36.554Z,98482.95
2019-02-10T16:06:05.360Z,98497.35
2019-02-10T16:08:34.307Z,98496.37
2019-02-10T16:11:02.591Z,98509.45
2019-02-10T16:13:30.683Z,98504.52
2019-02-10T16:15:58.885Z,98505.53
2019-02-10T16:18:27.631Z,98500.80
2019-02-10T16:20:55.883Z,98513.78
2019-02-10T16:23:24.413Z,98517.12
2019-02-10T16:25:52.755Z,98536.46
2019-02-10T16:28:20.915Z,98540.78
2019-02-10T16:31:04.452Z,98557.20
2019-02-10T16:33:33.694Z,98579.75
2019-02-10T16:36:01.872Z,98591.24
2019-02-10T16:38:30.043Z,98588.83
2019-02-10T16:41:05.896Z,98588.72
2019-02-10T16:43:28.247Z,98591.45
2019-02-10T16:45:56.521Z,98595.89
2019-02-10T16:48:24.574Z,98606.86
2019-02-10T16:50:52.790Z,98607.25
2019-02-10T16:53:21.051Z,98619.15
2019-02-10T16:55:49.187Z,98618.82
2019-02-10T16:58:17.600Z,98618.82
2019-02-10T17:01:00.966Z,98638.66
2019-02-10T17:03:31.142Z,98671.28
2019-02-10T17:05:59.717Z,98663.23
2019-02-10T17:08:28.035Z,98714.36
2019-02-10T17:10:56.291Z,98716.06
2019-02-10T17:13:24.762Z,98723.67
2019-02-10T17:15:53.009Z,98728.70
2019-02-10T17:18:21.502Z,98729.72
2019-02-10T17:20:49.552Z,98748.03
2019-02-10T17:23:17.870Z,98749.20
2019-02-10T17:25:45.979Z,98757.01
2019-02-10T17:28:21.733Z,98760.19
2019-02-10T17:30:49.869Z,98760.84
2019-02-10T17:33:28.070Z,98769.25
2019-02-10T17:35:56.717Z,98768.53
2019-02-10T17:38:25.135Z,98783.16
2019-02-10T17:41:07.820Z,98753.53
2019-02-10T17:43:36.261Z,98764.44
2019-02-10T17:46:04.892Z,98790.00
2019-02-10T17:48:37.555Z,98801.50
2019-02-10T17:51:08.074Z,98817.72
2019-02-10T17:53:36.384Z,98835.78
2019-02-10T17:56:05.402Z,98846.70
2019-02-10T17:58:33.929Z,98854.52
2019-02-10T18:01:02.131Z,98841.23
2019-02-10T18:03:38.276Z,98837.97
2019-02-10T18:06:06.454Z,98839.52
2019-02-10T18:08:35.168Z,98841.73
2019-02-10T18:11:03.733Z,98837.09
2019-02-10T18:13:32.215Z,98850.67
2019-02-10T18:16:26.296Z,98848.79
2019-02-10T18:19:23.315Z,98868.89
2019-02-10T18:22:13.808Z,98887.22
2019-02-10T18:24:53.668Z,98896.04
2019-02-10T18:27:45.156Z,98903.22
2019-02-10T18:30:24.011Z,98907.31
2019-02-10T18:33:30.280Z,98917.63
2019-02-10T18:36:20.678Z,98930.98
2019-02-10T18:39:17.319Z,98913.06
2019-02-10T18:42:20.756Z,98932.99
2019-02-10T18:45:20.319Z,98935.29
2019-02-10T18:48:01.397Z,98937.09
2019-02-10T18:50:58.601Z,98939.70
2019-02-10T18:53:54.081Z,98944.23
2019-02-10T18:56:42.268Z,98946.50
2019-02-10T18:59:49.061Z,98951.22
2019-02-10T19:02:56.778Z,98955.26
2019-02-10T19:05:43.378Z,98940.42
2019-02-10T19:11:51.827Z,98963.77
2019-02-10T19:14:44.397Z,98951.66
2019-02-10T19:17:35.592Z,98952.77
2019-02-10T19:20:23.281Z,98969.73
2019-02-10T19:23:11.339Z,98955.26
2019-02-10T19:26:01.960Z,98961.09
2019-02-10T19:28:36.562Z,98956.20
2019-02-10T19:31:18.066Z,98955.54
2019-02-10T19:34:06.796Z,98981.26
2019-02-10T19:36:48.089Z,98982.06
2019-02-10T19:39:26.314Z,99000.80
2019-02-10T19:42:29.570Z,98994.95
2019-02-10T19:45:29.445Z,98988.25
2019-02-10T19:48:14.921Z,98982.38
2019-02-10T19:51:02.612Z,99000.20
2019-02-10T19:53:42.479Z,98992.19
2019-02-10T19:56:25.302Z,99009.52
2019-02-10T19:59:20.761Z,99009.23
2019-02-10T20:02:08.530Z,99006.00
2019-02-10T20:04:51.038Z,99009.41
2019-02-10T20:07:48.022Z,99022.27
2019-02-10T20:10:33.225Z,99015.07
2019-02-10T20:13:36.402Z,99025.87
2019-02-10T20:16:30.917Z,99025.37
2019-02-10T20:19:24.289Z,99030.43
2019-02-10T20:22:17.082Z,99028.32
2019-02-10T20:25:02.611Z,99024.75
2019-02-10T20:27:58.817Z,99045.62
2019-02-10T20:30:43.867Z,99052.77
2019-02-10T20:33:57.993Z,99074.44
2019-02-10T20:36:45.806Z,99067.55
2019-02-10T20:39:23.594Z,99084.36
2019-02-10T20:41:58.920Z,99082.06
2019-02-10T20:44:53.929Z,99081.88
2019-02-10T20:47:51.186Z,99085.92
2019-02-10T20:50:35.183Z,99086.73
2019-02-10T20:53:25.332Z,99091.82
2019-02-10T20:56:03.970Z,99107.16
2019-02-10T20:58:43.371Z,99114.85
2019-02-10T21:01:31.077Z,99115.31
2019-02-10T21:04:11.994Z,99126.59
2019-02-10T21:06:50.089Z,99135.36
2019-02-10T21:09:31.624Z,99135.67
2019-02-10T21:12:28.238Z,99138.27
2019-02-10T21:15:16.859Z,99147.84
2019-02-10T21:18:05.084Z,99155.36
2019-02-10T21:20:53.250Z,99159.41
2019-02-10T21:23:55.055Z,99165.46
2019-02-10T21:26:34.136Z,99164.16
2019-02-10T21:29:22.117Z,99163.97
2019-02-10T21:32:01.911Z,99164.97
2019-02-10T21:34:49.341Z,99165.61
2019-02-10T21:37:36.165Z,99177.36
2019-02-10T21:40:13.546Z,99185.86
2019-02-10T21:43:05.758Z,99185.72
2019-02-10T21:45:43.615Z,99183.92
2019-02-10T21:48:37.781Z,99177.58
2019-02-10T21:51:05.962Z,99182.95
2019-02-10T21:53:34.082Z,99184.75
2019-02-10T21:56:02.397Z,99187.85
2019-02-10T21:58:30.867Z,99195.05
2019-02-10T22:00:58.907Z,99203.87
2019-02-10T22:03:27.095Z,99193.27
2019-02-10T22:05:55.231Z,99197.04
2019-02-10T22:08:23.341Z,99191.15
2019-02-10T22:10:51.749Z,99195.38
2019-02-10T22:13:19.834Z,99192.44
2019-02-10T22:15:48.204Z,99191.14
2019-02-10T22:18:16.455Z,99186.41
2019-02-10T22:20:44.580Z,99190.66
2019-02-10T22:23:12.823Z,99188.05
2019-02-10T22:25:40.955Z,99188.23
2019-02-10T22:28:09.155Z,99185.44
2019-02-10T22:30:37.349Z,99188.23
2019-02-10T22:33:05.442Z,99197.85
2019-02-10T22:35:34.729Z,99197.72
2019-02-10T22:38:02.996Z,99186.47
2019-02-10T22:40:31.733Z,99193.64
2019-02-10T22:42:59.867Z,99211.41
2019-02-10T22:45:27.953Z,99208.47
2019-02-10T22:47:56.308Z,99216.74
2019-02-10T22:50:25.571Z,99241.84
2019-02-10T22:52:53.657Z,99247.55
2019-02-10T22:55:22.102Z,99240.34
2019-02-10T22:57:50.650Z,99243.62
2019-02-10T23:00:46.012Z,99251.45
2019-02-10T23:03:14.962Z,99246.54
2019-02-10T23:05:43.892Z,99256.17
2019-02-10T23:08:13.183Z,99269.71
2019-02-10T23:10:41.812Z,99279.30
2019-02-10T23:13:09.873Z,99294.63
2019-02-10T23:15:38.439Z,99312.84
2019-02-10T23:18:06.463Z,99322.30
2019-02-10T23:20:34.839Z,99326.70
2019-02-10T23:23:02.891Z,99331.92
2019-02-10T23:25:31.076Z,99334.05
2019-02-10T23:27:59.163Z,99335.34
2019-02-10T23:30:27.247Z,99347.09
2019-02-10T23:32:55.267Z,99343.03
2019-02-10T23:35:24.443Z,99346.95
2019-02-10T23:37:52.523Z,99353.97
2019-02-10T23:40:20.654Z,99357.71
2019-02-10T23:42:48.711Z,99364.23
2019-02-10T23:45:17.731Z,99374.04
2019-02-10T23:47:46.105Z,99387.09
2019-02-10T23:50:14.198Z,99397.52
2019-02-10T23:52:42.535Z,99416.60
2019-02-10T23:55:10.765Z,99425.91
2019-02-10T23:57:39.151Z,99429.01
